sensor_id;sensor_type;location;lat;lon;timestamp;P1;durP1;ratioP1;P2;durP2;ratioP2
15498;SDS011;7851;52.260;6.030;2023-04-01T00:03:39;1.7;;;1.6;;
15498;SDS011;7851;52.260;6.030;2023-04-01T00:03:39;1.8;;;1.7;;
15498;SDS011;7851;52.260;6.030;2023-04-01T00:03:39;1.7;;;1.6;;
15498;SDS011;7851;52.260;6.030;2023-04-01T00:04:19;1.7;;;1.5;;
15498;SDS011;7851;52.260;6.030;2023-04-01T00:05:19;2.8;;;1.8;;
15498;SDS011;7851;52.260;6.030;2023-04-01T00:06:19;2.1;;;1.6;;
15498;SDS011;7851;52.260;6.030;2023-04-01T00:07:19;2.4;;;1.6;;
15498;SDS011;7851;52.260;6.030;2023-04-01T00:08:19;4.2;;;2;;
15498;SDS011;7851;52.260;6.030;2023-04-01T00:09:19;2.7;;;1.7;;
15498;SDS011;7851;52.260;6.030;2023-04-01T00:10:19;1.8;;;1.7;;
15498;SDS011;7851;52.260;6.030;2023-04-01T00:11:19;1.6;;;1.5;;
15498;SDS011;7851;52.260;6.030;2023-04-01T00:12:19;3;;;1.5;;
15498;SDS011;7851;52.260;6.030;2023-04-01T00:13:19;2.4;;;1.6;;
15498;SDS011;7851;52.260;6.030;2023-04-01T00:14:19;1.7;;;1.6;;
15498;SDS011;7851;52.260;6.030;2023-04-01T00:15:19;2.7;;;1.5;;
15498;SDS011;7851;52.260;6.030;2023-04-01T00:16:19;1.7;;;1.6;;
15498;SDS011;7851;52.260;6.030;2023-04-01T00:17:19;1.9;;;1.6;;
15498;SDS011;7851;52.260;6.030;2023-04-01T00:18:19;2.6;;;1.7;;
15498;SDS011;7851;52.260;6.030;2023-04-01T00:19:19;2;;;1.5;;
15498;SDS011;7851;52.260;6.030;2023-04-01T00:20:19;2;;;1.8;;
15498;SDS011;7851;52.260;6.030;2023-04-01T00:21:19;2.7;;;1.5;;
15498;SDS011;7851;52.260;6.030;2023-04-01T00:22:19;1.5;;;1.4;;
15498;SDS011;7851;52.260;6.030;2023-04-01T00:23:19;1.7;;;1.6;;
15498;SDS011;7851;52.260;6.030;2023-04-01T00:24:19;1.7;;;1.6;;
15498;SDS011;7851;52.260;6.030;2023-04-01T00:25:19;2.5;;;1.7;;
15498;SDS011;7851;52.260;6.030;2023-04-01T00:26:19;2.1;;;1.4;;
15498;SDS011;7851;52.260;6.030;2023-04-01T00:27:19;1.7;;;1.6;;
15498;SDS011;7851;52.260;6.030;2023-04-01T00:28:19;1.6;;;1.5;;
15498;SDS011;7851;52.260;6.030;2023-04-01T00:29:19;2.1;;;1.7;;
15498;SDS011;7851;52.260;6.030;2023-04-01T00:30:19;2.5;;;1.6;;
15498;SDS011;7851;52.260;6.030;2023-04-01T00:31:19;2.4;;;1.8;;
15498;SDS011;7851;52.260;6.030;2023-04-01T00:32:19;2.1;;;1.9;;
15498;SDS011;7851;52.260;6.030;2023-04-01T00:33:19;2.8;;;1.7;;
15498;SDS011;7851;52.260;6.030;2023-04-01T00:34:19;1.6;;;1.5;;
15498;SDS011;7851;52.260;6.030;2023-04-01T00:35:19;1.7;;;1.6;;
15498;SDS011;7851;52.260;6.030;2023-04-01T00:36:20;1.5;;;1.4;;
15498;SDS011;7851;52.260;6.030;2023-04-01T00:37:19;1.7;;;1.6;;
15498;SDS011;7851;52.260;6.030;2023-04-01T00:38:19;2.3;;;1.5;;
15498;SDS011;7851;52.260;6.030;2023-04-01T00:39:19;1.9;;;1.7;;
15498;SDS011;7851;52.260;6.030;2023-04-01T00:40:22;2.1;;;1.6;;
15498;SDS011;7851;52.260;6.030;2023-04-01T00:41:19;1.5;;;1.4;;
15498;SDS011;7851;52.260;6.030;2023-04-01T00:42:19;3.6;;;1.7;;
15498;SDS011;7851;52.260;6.030;2023-04-01T00:43:19;1.7;;;1.6;;
15498;SDS011;7851;52.260;6.030;2023-04-01T00:44:20;1.6;;;1.5;;
15498;SDS011;7851;52.260;6.030;2023-04-01T00:45:28;1.6;;;1.5;;
15498;SDS011;7851;52.260;6.030;2023-04-01T00:46:20;3.1;;;1.8;;
15498;SDS011;7851;52.260;6.030;2023-04-01T00:47:19;2.2;;;2.1;;
15498;SDS011;7851;52.260;6.030;2023-04-01T00:48:20;2.5;;;2;;
15498;SDS011;7851;52.260;6.030;2023-04-01T00:49:19;2.4;;;2;;
15498;SDS011;7851;52.260;6.030;2023-04-01T00:50:19;2.4;;;2.2;;
15498;SDS011;7851;52.260;6.030;2023-04-01T00:51:20;2.9;;;2.3;;
15498;SDS011;7851;52.260;6.030;2023-04-01T00:52:20;2.5;;;2.2;;
15498;SDS011;7851;52.260;6.030;2023-04-01T00:53:19;2.7;;;2.5;;
15498;SDS011;7851;52.260;6.030;2023-04-01T00:54:19;2.6;;;2.4;;
15498;SDS011;7851;52.260;6.030;2023-04-01T00:55:19;2.8;;;2.5;;
15498;SDS011;7851;52.260;6.030;2023-04-01T00:56:19;2.8;;;2.3;;
15498;SDS011;7851;52.260;6.030;2023-04-01T00:57:20;3.4;;;2.9;;
15498;SDS011;7851;52.260;6.030;2023-04-01T00:58:20;2.8;;;2.6;;
15498;SDS011;7851;52.260;6.030;2023-04-01T00:59:20;3.4;;;3.1;;
15498;SDS011;7851;52.260;6.030;2023-04-01T01:00:19;3.3;;;3;;
15498;SDS011;7851;52.260;6.030;2023-04-01T01:01:19;3.5;;;3.3;;
15498;SDS011;7851;52.260;6.030;2023-04-01T01:02:19;3.1;;;2.9;;
15498;SDS011;7851;52.260;6.030;2023-04-01T01:03:19;4.6;;;3.2;;
15498;SDS011;7851;52.260;6.030;2023-04-01T01:04:23;2.9;;;2.6;;
15498;SDS011;7851;52.260;6.030;2023-04-01T01:05:20;3.4;;;3.1;;
15498;SDS011;7851;52.260;6.030;2023-04-01T01:06:23;2.6;;;2.5;;
15498;SDS011;7851;52.260;6.030;2023-04-01T01:07:20;3.7;;;3.4;;
15498;SDS011;7851;52.260;6.030;2023-04-01T01:08:20;3.7;;;3.3;;
15498;SDS011;7851;52.260;6.030;2023-04-01T01:09:23;4;;;3.6;;
15498;SDS011;7851;52.260;6.030;2023-04-01T01:10:20;3.3;;;3;;
15498;SDS011;7851;52.260;6.030;2023-04-01T01:11:20;3.1;;;2.9;;
15498;SDS011;7851;52.260;6.030;2023-04-01T01:12:19;4;;;3.3;;
15498;SDS011;7851;52.260;6.030;2023-04-01T01:13:21;3.3;;;3.1;;
15498;SDS011;7851;52.260;6.030;2023-04-01T01:14:22;2.8;;;2.5;;
15498;SDS011;7851;52.260;6.030;2023-04-01T01:15:20;3.8;;;3.5;;
15498;SDS011;7851;52.260;6.030;2023-04-01T01:16:20;3.7;;;3.4;;
15498;SDS011;7851;52.260;6.030;2023-04-01T01:17:20;3.6;;;3.3;;
15498;SDS011;7851;52.260;6.030;2023-04-01T01:18:19;3.7;;;3.3;;
15498;SDS011;7851;52.260;6.030;2023-04-01T01:19:24;3.9;;;3.4;;
15498;SDS011;7851;52.260;6.030;2023-04-01T01:20:24;3.4;;;3.1;;
15498;SDS011;7851;52.260;6.030;2023-04-01T01:22:22;4.5;;;3.9;;
15498;SDS011;7851;52.260;6.030;2023-04-01T01:24:25;4.8;;;3.7;;
15498;SDS011;7851;52.260;6.030;2023-04-01T01:25:25;4.3;;;3.6;;
15498;SDS011;7851;52.260;6.030;2023-04-01T01:26:24;6.1;;;4.4;;
15498;SDS011;7851;52.260;6.030;2023-04-01T01:27:19;4.1;;;3.6;;
15498;SDS011;7851;52.260;6.030;2023-04-01T01:28:24;5.8;;;4.6;;
15498;SDS011;7851;52.260;6.030;2023-04-01T01:30:20;6.2;;;5.2;;
15498;SDS011;7851;52.260;6.030;2023-04-01T01:31:21;5.6;;;5.1;;
15498;SDS011;7851;52.260;6.030;2023-04-01T01:32:23;5.9;;;5.2;;
15498;SDS011;7851;52.260;6.030;2023-04-01T01:33:24;6;;;4.7;;
15498;SDS011;7851;52.260;6.030;2023-04-01T01:34:19;6.2;;;5.2;;
15498;SDS011;7851;52.260;6.030;2023-04-01T01:35:20;5.2;;;4.7;;
15498;SDS011;7851;52.260;6.030;2023-04-01T01:36:19;6.6;;;5.6;;
15498;SDS011;7851;52.260;6.030;2023-04-01T01:37:20;6.1;;;5.3;;
15498;SDS011;7851;52.260;6.030;2023-04-01T01:38:19;6.4;;;5.8;;
15498;SDS011;7851;52.260;6.030;2023-04-01T01:39:19;6;;;5.5;;
15498;SDS011;7851;52.260;6.030;2023-04-01T01:40:19;5.5;;;5;;
15498;SDS011;7851;52.260;6.030;2023-04-01T01:41:19;6.7;;;6.1;;
15498;SDS011;7851;52.260;6.030;2023-04-01T01:42:19;6.3;;;5.7;;
15498;SDS011;7851;52.260;6.030;2023-04-01T01:43:21;6;;;5.4;;
15498;SDS011;7851;52.260;6.030;2023-04-01T01:44:19;8.1;;;5.5;;
15498;SDS011;7851;52.260;6.030;2023-04-01T01:45:19;7.3;;;6.2;;
15498;SDS011;7851;52.260;6.030;2023-04-01T01:46:19;7.6;;;6.8;;
15498;SDS011;7851;52.260;6.030;2023-04-01T01:47:19;6.3;;;5.7;;
15498;SDS011;7851;52.260;6.030;2023-04-01T01:48:19;6.3;;;5.7;;
15498;SDS011;7851;52.260;6.030;2023-04-01T01:49:19;7.3;;;6.6;;
15498;SDS011;7851;52.260;6.030;2023-04-01T01:50:19;7;;;6.3;;
15498;SDS011;7851;52.260;6.030;2023-04-01T01:51:19;6.4;;;5.4;;
15498;SDS011;7851;52.260;6.030;2023-04-01T01:52:19;5.7;;;5.2;;
15498;SDS011;7851;52.260;6.030;2023-04-01T01:53:19;5.7;;;5.1;;
15498;SDS011;7851;52.260;6.030;2023-04-01T01:54:19;5.9;;;5.3;;
15498;SDS011;7851;52.260;6.030;2023-04-01T01:55:23;6.3;;;5.5;;
15498;SDS011;7851;52.260;6.030;2023-04-01T01:56:19;7.8;;;6.1;;
15498;SDS011;7851;52.260;6.030;2023-04-01T01:57:19;7.4;;;6;;
15498;SDS011;7851;52.260;6.030;2023-04-01T01:58:20;6.2;;;5.6;;
15498;SDS011;7851;52.260;6.030;2023-04-01T01:59:19;6;;;5.5;;
15498;SDS011;7851;52.260;6.030;2023-04-01T02:00:19;6.4;;;5.4;;
15498;SDS011;7851;52.260;6.030;2023-04-01T02:01:20;7.6;;;6.2;;
15498;SDS011;7851;52.260;6.030;2023-04-01T02:02:19;6.2;;;5.6;;
15498;SDS011;7851;52.260;6.030;2023-04-01T02:03:19;6.2;;;5.6;;
15498;SDS011;7851;52.260;6.030;2023-04-01T02:04:19;9.3;;;5.5;;
15498;SDS011;7851;52.260;6.030;2023-04-01T02:05:19;8;;;5.7;;
15498;SDS011;7851;52.260;6.030;2023-04-01T02:06:19;6.9;;;6;;
15498;SDS011;7851;52.260;6.030;2023-04-01T02:07:20;7.5;;;6.4;;
15498;SDS011;7851;52.260;6.030;2023-04-01T02:08:20;6.8;;;6.2;;
15498;SDS011;7851;52.260;6.030;2023-04-01T02:09:19;6.6;;;6;;
15498;SDS011;7851;52.260;6.030;2023-04-01T02:10:19;6.6;;;5.9;;
15498;SDS011;7851;52.260;6.030;2023-04-01T02:11:20;7.1;;;5.6;;
15498;SDS011;7851;52.260;6.030;2023-04-01T02:12:19;7.1;;;5.7;;
15498;SDS011;7851;52.260;6.030;2023-04-01T02:13:21;8.3;;;6.5;;
15498;SDS011;7851;52.260;6.030;2023-04-01T02:14:19;6.7;;;6;;
15498;SDS011;7851;52.260;6.030;2023-04-01T02:15:19;6;;;5.5;;
15498;SDS011;7851;52.260;6.030;2023-04-01T02:16:20;5.7;;;5.2;;
15498;SDS011;7851;52.260;6.030;2023-04-01T02:17:19;8.8;;;5.7;;
15498;SDS011;7851;52.260;6.030;2023-04-01T02:18:19;6.7;;;6.1;;
15498;SDS011;7851;52.260;6.030;2023-04-01T02:19:19;6.3;;;5.8;;
15498;SDS011;7851;52.260;6.030;2023-04-01T02:20:19;6.4;;;5.8;;
15498;SDS011;7851;52.260;6.030;2023-04-01T02:21:19;7.4;;;5.8;;
15498;SDS011;7851;52.260;6.030;2023-04-01T02:22:20;6.4;;;5.9;;
15498;SDS011;7851;52.260;6.030;2023-04-01T02:23:19;7.3;;;5.8;;
15498;SDS011;7851;52.260;6.030;2023-04-01T02:24:19;7.6;;;6.8;;
15498;SDS011;7851;52.260;6.030;2023-04-01T02:25:20;7.1;;;6.3;;
15498;SDS011;7851;52.260;6.030;2023-04-01T02:26:19;7.8;;;6.2;;
15498;SDS011;7851;52.260;6.030;2023-04-01T02:27:19;8;;;6.8;;
15498;SDS011;7851;52.260;6.030;2023-04-01T02:28:19;8;;;7.1;;
15498;SDS011;7851;52.260;6.030;2023-04-01T02:29:19;8.8;;;6.8;;
15498;SDS011;7851;52.260;6.030;2023-04-01T02:30:19;7.5;;;6.2;;
15498;SDS011;7851;52.260;6.030;2023-04-01T02:31:19;10.5;;;7.4;;
15498;SDS011;7851;52.260;6.030;2023-04-01T02:32:19;10.4;;;7.7;;
15498;SDS011;7851;52.260;6.030;2023-04-01T02:33:19;8.9;;;7.6;;
15498;SDS011;7851;52.260;6.030;2023-04-01T02:34:19;7.4;;;6.6;;
15498;SDS011;7851;52.260;6.030;2023-04-01T02:35:19;8.3;;;7.5;;
15498;SDS011;7851;52.260;6.030;2023-04-01T02:36:19;8.5;;;7.5;;
15498;SDS011;7851;52.260;6.030;2023-04-01T02:37:19;7.8;;;7;;
15498;SDS011;7851;52.260;6.030;2023-04-01T02:38:19;7.9;;;7.1;;
15498;SDS011;7851;52.260;6.030;2023-04-01T02:39:19;8;;;7.3;;
15498;SDS011;7851;52.260;6.030;2023-04-01T02:40:19;9.3;;;7.5;;
15498;SDS011;7851;52.260;6.030;2023-04-01T02:41:19;8.2;;;7.3;;
15498;SDS011;7851;52.260;6.030;2023-04-01T02:42:19;7.2;;;6.3;;
15498;SDS011;7851;52.260;6.030;2023-04-01T02:43:19;9.2;;;7.2;;
15498;SDS011;7851;52.260;6.030;2023-04-01T02:44:19;9;;;7.6;;
15498;SDS011;7851;52.260;6.030;2023-04-01T02:45:19;9.8;;;8.3;;
15498;SDS011;7851;52.260;6.030;2023-04-01T02:46:19;7.6;;;6.6;;
15498;SDS011;7851;52.260;6.030;2023-04-01T02:47:19;8.7;;;7.8;;
15498;SDS011;7851;52.260;6.030;2023-04-01T02:48:19;10.1;;;7.9;;
15498;SDS011;7851;52.260;6.030;2023-04-01T02:49:19;8.3;;;7.4;;
15498;SDS011;7851;52.260;6.030;2023-04-01T02:50:19;11.2;;;8.5;;
15498;SDS011;7851;52.260;6.030;2023-04-01T02:51:19;8.6;;;7.7;;
15498;SDS011;7851;52.260;6.030;2023-04-01T02:52:19;8.8;;;7.9;;
15498;SDS011;7851;52.260;6.030;2023-04-01T02:53:19;9.9;;;8.1;;
15498;SDS011;7851;52.260;6.030;2023-04-01T02:54:19;9.5;;;7.9;;
15498;SDS011;7851;52.260;6.030;2023-04-01T02:55:19;10.9;;;8.8;;
15498;SDS011;7851;52.260;6.030;2023-04-01T02:56:19;10.9;;;8.7;;
15498;SDS011;7851;52.260;6.030;2023-04-01T02:57:19;10.6;;;9.5;;
15498;SDS011;7851;52.260;6.030;2023-04-01T02:58:19;13.5;;;8.9;;
15498;SDS011;7851;52.260;6.030;2023-04-01T02:59:19;9.6;;;8.5;;
15498;SDS011;7851;52.260;6.030;2023-04-01T03:00:19;9.1;;;8.2;;
15498;SDS011;7851;52.260;6.030;2023-04-01T03:01:19;10.8;;;9.4;;
15498;SDS011;7851;52.260;6.030;2023-04-01T03:02:19;12.1;;;8.8;;
15498;SDS011;7851;52.260;6.030;2023-04-01T03:03:19;11.1;;;9.6;;
15498;SDS011;7851;52.260;6.030;2023-04-01T03:04:19;14.7;;;9.7;;
15498;SDS011;7851;52.260;6.030;2023-04-01T03:05:19;12.7;;;9.4;;
15498;SDS011;7851;52.260;6.030;2023-04-01T03:06:19;9.6;;;8.6;;
15498;SDS011;7851;52.260;6.030;2023-04-01T03:07:19;11.7;;;9.1;;
15498;SDS011;7851;52.260;6.030;2023-04-01T03:08:19;11.3;;;8.7;;
15498;SDS011;7851;52.260;6.030;2023-04-01T03:09:19;9.5;;;7.6;;
15498;SDS011;7851;52.260;6.030;2023-04-01T03:10:19;11.7;;;8.2;;
15498;SDS011;7851;52.260;6.030;2023-04-01T03:11:19;10.7;;;8.7;;
15498;SDS011;7851;52.260;6.030;2023-04-01T03:12:19;12.8;;;9.4;;
15498;SDS011;7851;52.260;6.030;2023-04-01T03:13:19;9.2;;;7.8;;
15498;SDS011;7851;52.260;6.030;2023-04-01T03:14:19;11.6;;;9.6;;
15498;SDS011;7851;52.260;6.030;2023-04-01T03:15:19;11.4;;;8.7;;
15498;SDS011;7851;52.260;6.030;2023-04-01T03:16:19;12.3;;;9.2;;
15498;SDS011;7851;52.260;6.030;2023-04-01T03:17:19;11.7;;;8.8;;
15498;SDS011;7851;52.260;6.030;2023-04-01T03:18:19;12.9;;;9.6;;
15498;SDS011;7851;52.260;6.030;2023-04-01T03:19:19;11.7;;;9.1;;
15498;SDS011;7851;52.260;6.030;2023-04-01T03:20:19;10.5;;;8.7;;
15498;SDS011;7851;52.260;6.030;2023-04-01T03:21:20;9.8;;;8.5;;
15498;SDS011;7851;52.260;6.030;2023-04-01T03:22:19;12.5;;;9;;
15498;SDS011;7851;52.260;6.030;2023-04-01T03:23:19;11.4;;;8.7;;
15498;SDS011;7851;52.260;6.030;2023-04-01T03:24:19;13;;;9.1;;
15498;SDS011;7851;52.260;6.030;2023-04-01T03:25:19;12;;;9.1;;
15498;SDS011;7851;52.260;6.030;2023-04-01T03:26:19;9.8;;;8.1;;
15498;SDS011;7851;52.260;6.030;2023-04-01T03:27:19;8.5;;;7.7;;
15498;SDS011;7851;52.260;6.030;2023-04-01T03:28:19;9.4;;;8.4;;
15498;SDS011;7851;52.260;6.030;2023-04-01T03:29:19;12.2;;;9;;
15498;SDS011;7851;52.260;6.030;2023-04-01T03:30:19;9.9;;;8.9;;
15498;SDS011;7851;52.260;6.030;2023-04-01T03:31:19;10.2;;;8.5;;
15498;SDS011;7851;52.260;6.030;2023-04-01T03:32:19;11.2;;;7.8;;
15498;SDS011;7851;52.260;6.030;2023-04-01T03:33:19;9.6;;;8;;
15498;SDS011;7851;52.260;6.030;2023-04-01T03:34:19;10;;;8.1;;
15498;SDS011;7851;52.260;6.030;2023-04-01T03:35:19;11;;;9;;
15498;SDS011;7851;52.260;6.030;2023-04-01T03:36:19;10.4;;;9.2;;
15498;SDS011;7851;52.260;6.030;2023-04-01T03:37:19;11;;;8.5;;
15498;SDS011;7851;52.260;6.030;2023-04-01T03:38:19;11.7;;;8.5;;
15498;SDS011;7851;52.260;6.030;2023-04-01T03:39:19;11.8;;;9.2;;
15498;SDS011;7851;52.260;6.030;2023-04-01T03:40:19;11.4;;;9.1;;
15498;SDS011;7851;52.260;6.030;2023-04-01T03:41:19;13;;;9.6;;
15498;SDS011;7851;52.260;6.030;2023-04-01T03:42:19;11;;;9.9;;
15498;SDS011;7851;52.260;6.030;2023-04-01T03:43:19;10.4;;;9.1;;
15498;SDS011;7851;52.260;6.030;2023-04-01T03:44:19;10.7;;;9.5;;
15498;SDS011;7851;52.260;6.030;2023-04-01T03:45:19;10.4;;;9.3;;
15498;SDS011;7851;52.260;6.030;2023-04-01T03:46:19;10.8;;;8.8;;
15498;SDS011;7851;52.260;6.030;2023-04-01T03:47:19;14;;;8.9;;
15498;SDS011;7851;52.260;6.030;2023-04-01T03:48:19;10.6;;;9.4;;
15498;SDS011;7851;52.260;6.030;2023-04-01T03:49:19;9.7;;;8.6;;
15498;SDS011;7851;52.260;6.030;2023-04-01T03:50:19;12.1;;;9.5;;
15498;SDS011;7851;52.260;6.030;2023-04-01T03:51:19;13.4;;;9.9;;
15498;SDS011;7851;52.260;6.030;2023-04-01T03:52:19;13.4;;;9.8;;
15498;SDS011;7851;52.260;6.030;2023-04-01T03:53:19;9.9;;;8.8;;
15498;SDS011;7851;52.260;6.030;2023-04-01T03:54:19;10.9;;;8.7;;
15498;SDS011;7851;52.260;6.030;2023-04-01T03:55:19;11.1;;;8.7;;
15498;SDS011;7851;52.260;6.030;2023-04-01T03:56:19;12.2;;;8.9;;
15498;SDS011;7851;52.260;6.030;2023-04-01T03:57:19;15;;;8.5;;
15498;SDS011;7851;52.260;6.030;2023-04-01T03:58:19;12.8;;;8.9;;
15498;SDS011;7851;52.260;6.030;2023-04-01T03:59:19;9.8;;;8.4;;
15498;SDS011;7851;52.260;6.030;2023-04-01T04:00:19;9.7;;;8.6;;
15498;SDS011;7851;52.260;6.030;2023-04-01T04:01:19;11.6;;;8.3;;
15498;SDS011;7851;52.260;6.030;2023-04-01T04:02:19;12.2;;;8.3;;
15498;SDS011;7851;52.260;6.030;2023-04-01T04:03:19;9.4;;;7.7;;
15498;SDS011;7851;52.260;6.030;2023-04-01T04:04:19;12.3;;;7.6;;
15498;SDS011;7851;52.260;6.030;2023-04-01T04:05:19;11.9;;;6.9;;
15498;SDS011;7851;52.260;6.030;2023-04-01T04:06:19;9.4;;;7.4;;
15498;SDS011;7851;52.260;6.030;2023-04-01T04:07:19;9.5;;;7.4;;
15498;SDS011;7851;52.260;6.030;2023-04-01T04:08:19;9.2;;;7.7;;
15498;SDS011;7851;52.260;6.030;2023-04-01T04:09:19;7.7;;;6.9;;
15498;SDS011;7851;52.260;6.030;2023-04-01T04:10:19;9.2;;;6.9;;
15498;SDS011;7851;52.260;6.030;2023-04-01T04:11:19;10.3;;;7.5;;
15498;SDS011;7851;52.260;6.030;2023-04-01T04:12:19;8.6;;;7.6;;
15498;SDS011;7851;52.260;6.030;2023-04-01T04:13:19;10.9;;;8.5;;
15498;SDS011;7851;52.260;6.030;2023-04-01T04:14:19;10.1;;;7.7;;
15498;SDS011;7851;52.260;6.030;2023-04-01T04:15:19;8.8;;;7.1;;
15498;SDS011;7851;52.260;6.030;2023-04-01T04:16:19;10.1;;;7.4;;
15498;SDS011;7851;52.260;6.030;2023-04-01T04:17:19;8.5;;;6.8;;
15498;SDS011;7851;52.260;6.030;2023-04-01T04:18:19;9.9;;;7.2;;
15498;SDS011;7851;52.260;6.030;2023-04-01T04:19:19;9.5;;;7.2;;
15498;SDS011;7851;52.260;6.030;2023-04-01T04:20:19;10.4;;;7.7;;
15498;SDS011;7851;52.260;6.030;2023-04-01T04:21:19;10.5;;;8.6;;
15498;SDS011;7851;52.260;6.030;2023-04-01T04:22:19;9.8;;;8.1;;
15498;SDS011;7851;52.260;6.030;2023-04-01T04:23:19;9.8;;;7.9;;
15498;SDS011;7851;52.260;6.030;2023-04-01T04:24:19;13.9;;;8.8;;
15498;SDS011;7851;52.260;6.030;2023-04-01T04:25:19;10.2;;;7.9;;
15498;SDS011;7851;52.260;6.030;2023-04-01T04:26:19;11.5;;;8.8;;
15498;SDS011;7851;52.260;6.030;2023-04-01T04:27:19;10.1;;;7.7;;
15498;SDS011;7851;52.260;6.030;2023-04-01T04:28:19;9.5;;;8.1;;
15498;SDS011;7851;52.260;6.030;2023-04-01T04:29:19;10.8;;;7.7;;
15498;SDS011;7851;52.260;6.030;2023-04-01T04:30:19;10.9;;;8.3;;
15498;SDS011;7851;52.260;6.030;2023-04-01T04:31:19;10.7;;;8.4;;
15498;SDS011;7851;52.260;6.030;2023-04-01T04:32:19;8.4;;;7.4;;
15498;SDS011;7851;52.260;6.030;2023-04-01T04:33:19;13.1;;;9;;
15498;SDS011;7851;52.260;6.030;2023-04-01T04:34:19;11.5;;;8.2;;
15498;SDS011;7851;52.260;6.030;2023-04-01T04:35:19;10.2;;;7.8;;
15498;SDS011;7851;52.260;6.030;2023-04-01T04:36:19;9.4;;;8.4;;
15498;SDS011;7851;52.260;6.030;2023-04-01T04:37:19;9.6;;;8.5;;
15498;SDS011;7851;52.260;6.030;2023-04-01T04:38:19;9.1;;;7.7;;
15498;SDS011;7851;52.260;6.030;2023-04-01T04:39:19;10.6;;;8.4;;
15498;SDS011;7851;52.260;6.030;2023-04-01T04:40:19;11.3;;;8.2;;
15498;SDS011;7851;52.260;6.030;2023-04-01T04:41:19;11.3;;;8.6;;
15498;SDS011;7851;52.260;6.030;2023-04-01T04:42:19;9.6;;;8.2;;
15498;SDS011;7851;52.260;6.030;2023-04-01T04:43:19;10.6;;;8.2;;
15498;SDS011;7851;52.260;6.030;2023-04-01T04:44:19;11.7;;;8.3;;
15498;SDS011;7851;52.260;6.030;2023-04-01T04:45:19;11.2;;;8;;
15498;SDS011;7851;52.260;6.030;2023-04-01T04:46:19;9.9;;;8;;
15498;SDS011;7851;52.260;6.030;2023-04-01T04:47:19;9.7;;;7.6;;
15498;SDS011;7851;52.260;6.030;2023-04-01T04:48:19;12.2;;;9;;
15498;SDS011;7851;52.260;6.030;2023-04-01T04:49:19;9.3;;;8.3;;
15498;SDS011;7851;52.260;6.030;2023-04-01T04:50:19;9.9;;;8.3;;
15498;SDS011;7851;52.260;6.030;2023-04-01T04:51:19;9.5;;;8.4;;
15498;SDS011;7851;52.260;6.030;2023-04-01T04:52:19;10.9;;;8.9;;
15498;SDS011;7851;52.260;6.030;2023-04-01T04:53:19;9.6;;;8.6;;
15498;SDS011;7851;52.260;6.030;2023-04-01T04:54:19;7.9;;;7;;
15498;SDS011;7851;52.260;6.030;2023-04-01T04:55:19;10.1;;;8.7;;
15498;SDS011;7851;52.260;6.030;2023-04-01T04:56:19;10.4;;;7.6;;
15498;SDS011;7851;52.260;6.030;2023-04-01T04:57:19;8.8;;;7.9;;
15498;SDS011;7851;52.260;6.030;2023-04-01T04:58:19;11.1;;;8.3;;
15498;SDS011;7851;52.260;6.030;2023-04-01T04:59:19;10.4;;;9.2;;
15498;SDS011;7851;52.260;6.030;2023-04-01T05:00:19;9;;;8;;
15498;SDS011;7851;52.260;6.030;2023-04-01T05:01:19;16.9;;;8.8;;
15498;SDS011;7851;52.260;6.030;2023-04-01T05:02:19;10.1;;;8.2;;
15498;SDS011;7851;52.260;6.030;2023-04-01T05:03:19;11.6;;;8.9;;
15498;SDS011;7851;52.260;6.030;2023-04-01T05:04:19;8.7;;;7.9;;
15498;SDS011;7851;52.260;6.030;2023-04-01T05:05:19;9.6;;;8.6;;
15498;SDS011;7851;52.260;6.030;2023-04-01T05:06:19;12.7;;;8;;
15498;SDS011;7851;52.260;6.030;2023-04-01T05:07:19;9;;;8.1;;
15498;SDS011;7851;52.260;6.030;2023-04-01T05:08:19;9.7;;;8.7;;
15498;SDS011;7851;52.260;6.030;2023-04-01T05:09:19;8.9;;;8.1;;
15498;SDS011;7851;52.260;6.030;2023-04-01T05:10:19;9.7;;;8.7;;
15498;SDS011;7851;52.260;6.030;2023-04-01T05:11:19;12.3;;;9.8;;
15498;SDS011;7851;52.260;6.030;2023-04-01T05:12:19;14;;;8.5;;
15498;SDS011;7851;52.260;6.030;2023-04-01T05:13:19;9.6;;;8.5;;
15498;SDS011;7851;52.260;6.030;2023-04-01T05:14:19;10.3;;;8.1;;
15498;SDS011;7851;52.260;6.030;2023-04-01T05:15:19;9;;;8.1;;
15498;SDS011;7851;52.260;6.030;2023-04-01T05:16:19;9;;;8;;
15498;SDS011;7851;52.260;6.030;2023-04-01T05:17:19;9.5;;;8.4;;
15498;SDS011;7851;52.260;6.030;2023-04-01T05:18:19;9.6;;;8.6;;
15498;SDS011;7851;52.260;6.030;2023-04-01T05:19:19;8.7;;;7.9;;
15498;SDS011;7851;52.260;6.030;2023-04-01T05:20:19;10;;;8.6;;
15498;SDS011;7851;52.260;6.030;2023-04-01T05:21:19;8.7;;;7.8;;
15498;SDS011;7851;52.260;6.030;2023-04-01T05:22:19;9.7;;;8.8;;
15498;SDS011;7851;52.260;6.030;2023-04-01T05:23:20;9.4;;;8.4;;
15498;SDS011;7851;52.260;6.030;2023-04-01T05:24:19;10.6;;;8.6;;
15498;SDS011;7851;52.260;6.030;2023-04-01T05:25:19;10.7;;;9.1;;
15498;SDS011;7851;52.260;6.030;2023-04-01T05:26:19;9.2;;;8.2;;
15498;SDS011;7851;52.260;6.030;2023-04-01T05:27:19;9.9;;;8.7;;
15498;SDS011;7851;52.260;6.030;2023-04-01T05:28:19;9.3;;;8.3;;
15498;SDS011;7851;52.260;6.030;2023-04-01T05:29:19;10.8;;;9.7;;
15498;SDS011;7851;52.260;6.030;2023-04-01T05:30:19;10.6;;;9.3;;
15498;SDS011;7851;52.260;6.030;2023-04-01T05:31:19;10.6;;;9.5;;
15498;SDS011;7851;52.260;6.030;2023-04-01T05:32:19;9.3;;;8.3;;
15498;SDS011;7851;52.260;6.030;2023-04-01T05:33:19;10.6;;;8.5;;
15498;SDS011;7851;52.260;6.030;2023-04-01T05:34:19;11.5;;;9;;
15498;SDS011;7851;52.260;6.030;2023-04-01T05:35:19;11.5;;;8.7;;
15498;SDS011;7851;52.260;6.030;2023-04-01T05:36:19;10;;;8.8;;
15498;SDS011;7851;52.260;6.030;2023-04-01T05:37:19;9.6;;;8.6;;
15498;SDS011;7851;52.260;6.030;2023-04-01T05:38:19;10.2;;;9.3;;
15498;SDS011;7851;52.260;6.030;2023-04-01T05:39:19;10;;;9;;
15498;SDS011;7851;52.260;6.030;2023-04-01T05:40:19;10.6;;;8.5;;
15498;SDS011;7851;52.260;6.030;2023-04-01T05:41:19;10.7;;;8.8;;
15498;SDS011;7851;52.260;6.030;2023-04-01T05:42:19;9.6;;;8.4;;
15498;SDS011;7851;52.260;6.030;2023-04-01T05:43:19;9.5;;;8.5;;
15498;SDS011;7851;52.260;6.030;2023-04-01T05:44:19;9.2;;;8.3;;
15498;SDS011;7851;52.260;6.030;2023-04-01T05:45:19;12.7;;;10;;
15498;SDS011;7851;52.260;6.030;2023-04-01T05:46:19;11.6;;;10.1;;
15498;SDS011;7851;52.260;6.030;2023-04-01T05:47:19;9.4;;;8.5;;
15498;SDS011;7851;52.260;6.030;2023-04-01T05:48:19;13.4;;;10.6;;
15498;SDS011;7851;52.260;6.030;2023-04-01T05:49:19;11.5;;;9.9;;
15498;SDS011;7851;52.260;6.030;2023-04-01T05:50:19;12.5;;;9.4;;
15498;SDS011;7851;52.260;6.030;2023-04-01T05:51:19;9.4;;;8.4;;
15498;SDS011;7851;52.260;6.030;2023-04-01T05:52:19;10.1;;;9.1;;
15498;SDS011;7851;52.260;6.030;2023-04-01T05:53:19;10.4;;;9.3;;
15498;SDS011;7851;52.260;6.030;2023-04-01T05:54:19;14;;;10.6;;
15498;SDS011;7851;52.260;6.030;2023-04-01T05:55:19;12.2;;;11;;
15498;SDS011;7851;52.260;6.030;2023-04-01T05:56:19;10.7;;;9.7;;
15498;SDS011;7851;52.260;6.030;2023-04-01T05:57:19;11.3;;;9.9;;
15498;SDS011;7851;52.260;6.030;2023-04-01T05:58:19;10.8;;;9.7;;
15498;SDS011;7851;52.260;6.030;2023-04-01T05:59:19;11.3;;;9.3;;
15498;SDS011;7851;52.260;6.030;2023-04-01T06:00:19;11.8;;;10.6;;
15498;SDS011;7851;52.260;6.030;2023-04-01T06:01:19;9.9;;;9;;
15498;SDS011;7851;52.260;6.030;2023-04-01T06:02:19;11.5;;;9.8;;
15498;SDS011;7851;52.260;6.030;2023-04-01T06:03:19;9.8;;;9;;
15498;SDS011;7851;52.260;6.030;2023-04-01T06:04:19;11.2;;;10.1;;
15498;SDS011;7851;52.260;6.030;2023-04-01T06:05:19;12.4;;;9.9;;
15498;SDS011;7851;52.260;6.030;2023-04-01T06:06:20;10.1;;;9.1;;
15498;SDS011;7851;52.260;6.030;2023-04-01T06:07:19;10.2;;;9.1;;
15498;SDS011;7851;52.260;6.030;2023-04-01T06:08:19;10.1;;;9.2;;
15498;SDS011;7851;52.260;6.030;2023-04-01T06:09:19;11.6;;;9.6;;
15498;SDS011;7851;52.260;6.030;2023-04-01T06:10:19;10;;;8.8;;
15498;SDS011;7851;52.260;6.030;2023-04-01T06:11:22;13;;;10.7;;
15498;SDS011;7851;52.260;6.030;2023-04-01T06:13:21;11.7;;;10.5;;
15498;SDS011;7851;52.260;6.030;2023-04-01T06:14:21;12.5;;;11.2;;
15498;SDS011;7851;52.260;6.030;2023-04-01T06:15:20;11.4;;;10.3;;
15498;SDS011;7851;52.260;6.030;2023-04-01T06:16:21;12.6;;;11.3;;
15498;SDS011;7851;52.260;6.030;2023-04-01T06:17:22;12;;;10.8;;
15498;SDS011;7851;52.260;6.030;2023-04-01T06:18:33;12.9;;;11.2;;
15498;SDS011;7851;52.260;6.030;2023-04-01T06:19:22;11.4;;;10.3;;
15498;SDS011;7851;52.260;6.030;2023-04-01T06:20:20;12.3;;;10.9;;
15498;SDS011;7851;52.260;6.030;2023-04-01T06:21:23;12;;;10.7;;
15498;SDS011;7851;52.260;6.030;2023-04-01T06:22:22;12.7;;;11;;
15498;SDS011;7851;52.260;6.030;2023-04-01T06:23:22;14.5;;;11.7;;